Time;durP1;ratioP1;P1;durP2;ratioP2;P2;SDS_P1;SDS_P2;PMS_P1;PMS_P2;Temp;Humidity;BMP_temperature;BMP_pressure;BME280_temperature;BME280_humidity;BME280_pressure;Samples;Min_cycle;Max_cycle;Signal;HPM_P1;HPM_P2
2022/02/17 00:01:39;;;;;;;2.70;2.70;;;12.50;62.50;;;;;;5094375;28;20201;-83
2022/02/17 00:04:04;;;;;;;2.90;2.90;;;12.60;62.10;;;;;;5112964;28;20430;-83
2022/02/17 00:06:30;;;;;;;2.80;2.80;;;12.60;61.80;;;;;;5094237;28;20174;-82
2022/02/17 00:08:56;;;;;;;2.80;2.80;;;12.60;61.50;;;;;;5093680;28;20215;-83
2022/02/17 00:11:21;;;;;;;2.77;2.77;;;12.60;61.10;;;;;;5093849;28;20177;-83
2022/02/17 00:13:47;;;;;;;2.90;2.90;;;12.60;61.20;;;;;;5093621;28;20219;-83
2022/02/17 00:16:12;;;;;;;2.70;2.70;;;12.60;61.10;;;;;;5094851;28;20784;-83
2022/02/17 00:18:39;;;;;;;3.10;3.00;;;12.70;60.00;;;;;;5093599;28;20212;-83
2022/02/17 00:21:05;;;;;;;2.47;2.47;;;12.80;59.70;;;;;;5093590;28;20213;-83
2022/02/17 00:23:31;;;;;;;2.90;2.80;;;12.80;59.20;;;;;;5093404;28;20449;-82
2022/02/17 00:25:56;;;;;;;2.70;2.70;;;12.70;59.40;;;;;;5093410;28;20256;-83
2022/02/17 00:28:22;;;;;;;3.50;3.40;;;12.80;59.20;;;;;;5093344;28;20455;-83
2022/02/17 00:30:48;;;;;;;2.90;2.80;;;12.80;59.00;;;;;;5093422;28;20226;-83
2022/02/17 00:33:13;;;;;;;2.50;2.50;;;12.90;58.70;;;;;;5093381;28;20404;-83
2022/02/17 00:35:39;;;;;;;2.90;2.90;;;12.90;58.90;;;;;;5093581;28;20741;-83
2022/02/17 00:38:05;;;;;;;2.80;2.70;;;13.00;58.50;;;;;;5094013;28;20246;-83
2022/02/17 00:40:31;;;;;;;2.57;2.57;;;12.90;58.90;;;;;;5093229;28;21057;-83
2022/02/17 00:42:57;;;;;;;2.87;2.87;;;12.90;59.30;;;;;;5112054;28;20172;-83
2022/02/17 00:45:22;;;;;;;2.63;2.63;;;12.90;59.60;;;;;;5093485;28;20247;-83
2022/02/17 00:47:49;;;;;;;2.73;2.73;;;12.90;59.50;;;;;;5093388;28;20234;-83
2022/02/17 00:50:15;;;;;;;2.80;2.80;;;12.90;59.10;;;;;;5093002;28;20170;-83
2022/02/17 00:52:41;;;;;;;2.97;2.87;;;13.00;58.90;;;;;;5092928;28;20926;-83
2022/02/17 00:55:07;;;;;;;3.07;2.97;;;12.90;59.80;;;;;;5092985;28;20177;-83
2022/02/17 00:57:33;;;;;;;2.90;2.90;;;12.90;59.70;;;;;;5092578;28;20181;-83
2022/02/17 00:59:58;;;;;;;2.90;2.90;;;12.80;60.20;;;;;;5092984;28;20420;-83
2022/02/17 01:02:24;;;;;;;2.90;2.80;;;12.80;60.40;;;;;;5092266;28;20197;-83
2022/02/17 01:04:50;;;;;;;2.70;2.50;;;12.80;60.90;;;;;;5092759;28;20206;-83
2022/02/17 01:07:16;;;;;;;2.60;2.47;;;12.70;61.20;;;;;;5092770;28;20233;-82
2022/02/17 01:09:42;;;;;;;2.50;2.50;;;12.70;61.60;;;;;;5110681;28;20169;-83
2022/02/17 01:12:08;;;;;;;3.00;2.90;;;12.70;62.10;;;;;;5092916;28;20184;-83
2022/02/17 01:14:34;;;;;;;2.80;2.70;;;12.70;63.20;;;;;;5092541;28;20433;-83
2022/02/17 01:17:00;;;;;;;2.77;2.77;;;12.70;64.00;;;;;;5092155;28;20519;-83
2022/02/17 01:19:25;;;;;;;2.63;2.63;;;12.60;64.90;;;;;;5092602;28;20170;-83
2022/02/17 01:21:52;;;;;;;2.40;2.40;;;12.50;65.80;;;;;;5092333;28;20482;-82
2022/02/17 01:24:18;;;;;;;2.43;2.33;;;12.50;66.40;;;;;;5092624;28;20576;-83
2022/02/17 01:26:44;;;;;;;2.30;2.30;;;12.40;67.50;;;;;;5110695;28;20775;-83
2022/02/17 01:29:09;;;;;;;2.50;2.50;;;12.30;67.70;;;;;;5092294;28;20418;-83
2022/02/17 01:31:35;;;;;;;2.87;2.43;;;12.40;67.50;;;;;;5091797;28;20174;-87
2022/02/17 01:34:01;;;;;;;2.50;2.50;;;12.30;67.60;;;;;;5092355;28;20191;-83
2022/02/17 01:36:27;;;;;;;2.50;2.40;;;12.30;67.70;;;;;;5092230;28;20166;-82
2022/02/17 01:38:52;;;;;;;2.27;2.27;;;12.20;67.70;;;;;;5092190;28;20170;-83
2022/02/17 01:41:18;;;;;;;2.40;2.40;;;12.20;67.90;;;;;;5092054;28;20834;-82
2022/02/17 01:43:50;;;;;;;2.57;2.57;;;12.20;68.20;;;;;;5091972;28;20619;-83
2022/02/17 01:46:16;;;;;;;2.30;2.30;;;12.20;68.80;;;;;;5091991;28;20418;-82
2022/02/17 01:48:42;;;;;;;2.43;2.33;;;12.20;68.20;;;;;;5092041;28;20451;-83
2022/02/17 01:51:07;;;;;;;2.70;2.70;;;12.20;68.30;;;;;;5092073;28;20447;-83
2022/02/17 01:53:33;;;;;;;2.20;2.20;;;12.10;69.30;;;;;;5092059;28;20547;-82
2022/02/17 01:55:59;;;;;;;2.50;2.40;;;12.10;70.20;;;;;;5091667;28;20180;-83
2022/02/17 01:58:31;;;;;;;2.70;2.23;;;12.10;70.60;;;;;;5091812;28;20185;-83
2022/02/17 02:00:56;;;;;;;2.00;1.97;;;12.00;72.00;;;;;;5109964;28;20484;-83
2022/02/17 02:03:23;;;;;;;2.40;2.23;;;12.00;72.60;;;;;;5091326;28;20455;-82
2022/02/17 02:05:49;;;;;;;1.70;1.70;;;12.00;73.10;;;;;;5091717;28;20178;-82
2022/02/17 02:08:15;;;;;;;2.00;2.00;;;11.90;74.20;;;;;;5091770;28;20407;-82
2022/02/17 02:10:40;;;;;;;1.97;1.97;;;11.90;74.60;;;;;;5094576;28;20174;-82
2022/02/17 02:13:06;;;;;;;2.10;2.00;;;11.90;74.40;;;;;;5096450;28;20414;-82
2022/02/17 02:16:01;;;;;;;2.07;2.07;;;11.80;74.60;;;;;;5095671;28;20242;-83
2022/02/17 02:18:27;;;;;;;1.90;1.90;;;11.80;75.10;;;;;;5074033;28;20193;-82
2022/02/17 02:20:55;;;;;;;2.00;2.00;;;11.80;75.20;;;;;;5095257;28;20838;-82
2022/02/17 02:23:21;;;;;;;1.97;1.97;;;11.80;75.40;;;;;;5095265;28;20181;-83
2022/02/17 02:25:49;;;;;;;1.80;1.80;;;11.80;75.70;;;;;;5095039;28;20415;-83
2022/02/17 02:28:17;;;;;;;2.00;2.00;;;11.70;75.90;;;;;;5095422;28;20492;-83
2022/02/17 02:30:43;;;;;;;2.07;2.07;;;11.70;76.50;;;;;;5095023;28;20420;-83
2022/02/17 02:33:09;;;;;;;1.67;1.67;;;11.70;77.00;;;;;;5095358;28;20477;-83
2022/02/17 02:35:35;;;;;;;2.23;2.20;;;11.70;77.20;;;;;;5094852;28;20415;-82
2022/02/17 02:38:00;;;;;;;1.83;1.83;;;11.70;77.80;;;;;;5095004;28;20170;-82
2022/02/17 02:40:26;;;;;;;1.90;1.80;;;11.70;77.60;;;;;;5094949;28;20210;-82
2022/02/17 02:42:51;;;;;;;1.80;1.80;;;11.70;77.30;;;;;;5094468;28;20691;-82
2022/02/17 02:45:17;;;;;;;1.80;1.80;;;11.70;77.80;;;;;;5094909;28;20201;-82
2022/02/17 02:47:43;;;;;;;1.73;1.73;;;11.60;78.50;;;;;;5094367;28;20188;-83
2022/02/17 02:50:08;;;;;;;1.70;1.70;;;11.60;79.20;;;;;;5094729;28;20202;-82
2022/02/17 02:52:36;;;;;;;1.60;1.60;;;11.60;79.30;;;;;;5094491;28;20170;-82
2022/02/17 02:55:02;;;;;;;1.53;1.53;;;11.60;79.10;;;;;;5094736;28;20181;-82
2022/02/17 02:57:27;;;;;;;1.63;1.63;;;11.60;78.60;;;;;;5094340;28;20776;-82
2022/02/17 02:59:53;;;;;;;1.53;1.53;;;11.70;78.50;;;;;;5094377;28;20439;-82
2022/02/17 03:02:19;;;;;;;1.60;1.60;;;11.60;78.30;;;;;;5094230;28;20294;-82
2022/02/17 03:04:44;;;;;;;1.80;1.80;;;11.70;78.40;;;;;;5094359;28;20588;-82
2022/02/17 03:07:10;;;;;;;2.00;2.00;;;11.70;77.80;;;;;;5093824;28;20340;-82
2022/02/17 03:09:36;;;;;;;1.80;1.70;;;11.80;77.00;;;;;;5094075;28;20307;-82
2022/02/17 03:12:02;;;;;;;1.80;1.80;;;11.80;77.30;;;;;;5094165;28;20408;-82
2022/02/17 03:14:27;;;;;;;1.80;1.80;;;11.70;77.00;;;;;;5094428;28;20189;-82
2022/02/17 03:16:53;;;;;;;1.57;1.57;;;11.70;77.50;;;;;;5093491;28;20935;-81
2022/02/17 03:19:19;;;;;;;1.90;1.90;;;11.80;77.20;;;;;;5094446;28;20174;-82
2022/02/17 03:21:44;;;;;;;2.10;2.10;;;11.70;77.20;;;;;;5094135;28;20208;-82
2022/02/17 03:24:10;;;;;;;1.70;1.70;;;11.80;76.50;;;;;;5112409;28;20588;-82
2022/02/17 03:26:35;;;;;;;1.77;1.77;;;11.70;76.80;;;;;;5094104;28;20634;-83
2022/02/17 03:29:03;;;;;;;1.80;1.80;;;11.80;77.00;;;;;;5093788;28;20170;-83
2022/02/17 03:31:29;;;;;;;1.70;1.70;;;11.80;76.50;;;;;;5093535;28;20642;-83
2022/02/17 03:33:55;;;;;;;1.63;1.63;;;11.80;76.60;;;;;;5093475;28;20794;-83
2022/02/17 03:36:20;;;;;;;1.70;1.70;;;11.80;77.10;;;;;;5093974;28;20408;-83
2022/02/17 03:38:46;;;;;;;1.87;1.87;;;11.80;77.10;;;;;;5093616;28;20184;-83
2022/02/17 03:41:11;;;;;;;2.10;2.10;;;11.70;77.70;;;;;;5093322;28;20212;-83
2022/02/17 03:43:37;;;;;;;1.80;1.70;;;11.70;77.70;;;;;;5093276;28;20208;-83
2022/02/17 03:46:03;;;;;;;1.47;1.47;;;11.70;77.80;;;;;;5093472;28;20173;-83
2022/02/17 03:48:29;;;;;;;1.87;1.87;;;11.70;77.30;;;;;;5093445;28;20192;-83
2022/02/17 03:50:54;;;;;;;1.67;1.67;;;11.80;77.10;;;;;;5093618;28;20174;-83
2022/02/17 03:53:20;;;;;;;1.90;1.90;;;11.80;76.80;;;;;;5093342;28;20166;-83
2022/02/17 03:55:45;;;;;;;1.60;1.60;;;11.80;76.30;;;;;;5092985;28;20185;-83
2022/02/17 03:59:00;;;;;;;1.63;1.63;;;11.80;76.00;;;;;;5093522;28;20264;-83
2022/02/17 04:00:57;;;;;;;1.80;1.80;;;11.80;75.50;;;;;;5111312;28;20249;-83
2022/02/17 04:03:22;;;;;;;1.83;1.83;;;11.80;75.60;;;;;;5092925;28;20494;-83
2022/02/17 04:05:48;;;;;;;1.70;1.70;;;11.80;75.90;;;;;;5092841;28;20264;-82
2022/02/17 04:08:14;;;;;;;2.00;2.00;;;11.80;75.90;;;;;;5092927;28;20173;-82
2022/02/17 04:10:40;;;;;;;1.87;1.87;;;11.90;75.20;;;;;;5092601;28;20174;-82
2022/02/17 04:13:05;;;;;;;1.90;1.90;;;11.90;75.20;;;;;;5093218;28;21070;-82
2022/02/17 04:15:31;;;;;;;2.10;2.10;;;11.90;74.90;;;;;;5092939;28;20541;-82
2022/02/17 04:17:57;;;;;;;2.07;2.07;;;11.90;74.80;;;;;;5093607;28;20557;-82
2022/02/17 04:20:22;;;;;;;1.60;1.60;;;11.90;75.00;;;;;;5092519;28;20174;-82
2022/02/17 04:22:48;;;;;;;2.10;2.10;;;11.90;74.60;;;;;;5092761;28;20205;-82
2022/02/17 04:25:13;;;;;;;1.60;1.60;;;11.90;74.40;;;;;;5091134;28;20412;-82
2022/02/17 04:27:39;;;;;;;2.27;2.27;;;11.90;74.80;;;;;;5092781;28;20469;-82
2022/02/17 04:30:06;;;;;;;2.03;2.03;;;11.90;74.60;;;;;;5092928;28;20533;-82
2022/02/17 04:32:31;;;;;;;2.13;2.13;;;11.90;75.60;;;;;;5091350;28;20243;-82
2022/02/17 04:34:57;;;;;;;2.30;2.20;;;11.90;75.90;;;;;;5092062;28;20411;-83
2022/02/17 04:37:23;;;;;;;2.10;2.10;;;11.90;77.10;;;;;;5092371;28;20178;-83
2022/02/17 04:39:49;;;;;;;2.10;2.00;;;11.90;77.30;;;;;;5091636;28;20173;-83
2022/02/17 04:42:20;;;;;;;2.00;2.00;;;11.90;78.80;;;;;;5091641;28;20209;-83
2022/02/17 04:44:49;;;;;;;1.90;1.90;;;11.90;77.90;;;;;;5092209;28;20173;-83
2022/02/17 04:47:17;;;;;;;2.00;2.00;;;11.80;78.30;;;;;;5092256;28;21206;-83
2022/02/17 04:49:42;;;;;;;1.80;1.80;;;11.80;77.80;;;;;;5091503;28;20505;-83
2022/02/17 04:52:09;;;;;;;2.00;2.00;;;11.90;77.90;;;;;;5092878;28;20453;-83
2022/02/17 04:54:35;;;;;;;2.10;2.10;;;11.90;77.70;;;;;;5092281;28;20850;-82
2022/02/17 04:57:05;;;;;;;2.10;2.10;;;11.80;77.90;;;;;;5093271;28;20415;-83
2022/02/17 04:59:31;;;;;;;2.20;2.20;;;11.80;79.40;;;;;;5093438;28;20774;-86
2022/02/17 05:01:57;;;;;;;1.50;1.50;;;11.80;79.00;;;;;;5094185;28;20467;-86
2022/02/17 05:04:22;;;;;;;2.03;1.93;;;11.80;79.70;;;;;;5094265;28;20174;-85
2022/02/17 05:06:48;;;;;;;1.80;1.80;;;11.80;78.50;;;;;;5094146;28;20416;-85
2022/02/17 05:09:14;;;;;;;2.17;2.07;;;11.80;78.50;;;;;;5094630;28;20600;-82
2022/02/17 05:11:39;;;;;;;1.63;1.63;;;11.80;77.90;;;;;;5094722;28;20173;-82
2022/02/17 05:14:05;;;;;;;1.70;1.70;;;11.80;78.00;;;;;;5094717;28;20649;-81
2022/02/17 05:16:32;;;;;;;1.77;1.77;;;11.90;78.70;;;;;;5094701;28;20587;-82
2022/02/17 05:18:58;;;;;;;1.77;1.77;;;11.80;79.60;;;;;;5094758;28;20234;-82
2022/02/17 05:21:24;;;;;;;1.70;1.70;;;11.80;79.40;;;;;;5094470;28;20451;-82
2022/02/17 05:23:50;;;;;;;1.63;1.63;;;11.80;78.10;;;;;;5094694;28;20422;-84
2022/02/17 05:26:15;;;;;;;1.90;1.90;;;11.80;78.40;;;;;;5094773;28;20170;-84
2022/02/17 05:28:41;;;;;;;2.20;2.20;;;11.80;75.70;;;;;;5094950;28;20783;-82
2022/02/17 05:31:07;;;;;;;2.07;1.97;;;11.90;73.00;;;;;;5094681;28;20173;-83
2022/02/17 05:33:33;;;;;;;2.10;2.10;;;11.90;73.00;;;;;;5094411;28;20199;-83
2022/02/17 05:35:58;;;;;;;3.23;2.10;;;11.90;71.80;;;;;;5094769;28;20185;-83
2022/02/17 05:38:24;;;;;;;2.10;2.10;;;12.00;70.50;;;;;;5094633;28;20441;-84
2022/02/17 05:40:50;;;;;;;1.90;1.90;;;12.10;70.90;;;;;;5094640;28;20212;-83
2022/02/17 05:43:16;;;;;;;1.80;1.80;;;12.00;71.20;;;;;;5095070;28;20170;-82
2022/02/17 05:45:41;;;;;;;2.20;2.20;;;12.10;69.00;;;;;;5098685;28;20166;-82
2022/02/17 05:48:07;;;;;;;2.00;2.00;;;12.00;68.20;;;;;;5098821;28;20174;-83
2022/02/17 05:50:33;;;;;;;1.87;1.87;;;12.00;68.20;;;;;;5098794;28;20177;-83
2022/02/17 05:52:59;;;;;;;2.70;2.60;;;12.00;68.00;;;;;;5098287;28;20227;-83
2022/02/17 05:55:26;;;;;;;2.30;2.20;;;12.00;66.20;;;;;;5098758;28;20177;-83
2022/02/17 05:57:51;;;;;;;3.00;2.67;;;12.00;65.80;;;;;;5098486;28;20411;-82
2022/02/17 06:00:19;;;;;;;3.30;3.20;;;12.10;63.00;;;;;;5098277;28;20487;-82
2022/02/17 06:02:45;;;;;;;2.83;2.83;;;12.10;61.00;;;;;;5098220;28;20174;-83
2022/02/17 06:05:11;;;;;;;3.97;3.77;;;12.10;60.60;;;;;;5098322;28;20533;-83
2022/02/17 06:07:37;;;;;;;3.40;3.30;;;12.00;59.40;;;;;;5098318;28;20181;-83
2022/02/17 06:10:05;;;;;;;3.53;3.37;;;12.10;57.80;;;;;;5098267;28;20419;-83
2022/02/17 06:12:31;;;;;;;3.93;3.77;;;12.00;58.80;;;;;;5116112;28;20411;-84
2022/02/17 06:14:58;;;;;;;4.53;4.30;;;12.00;56.20;;;;;;5098126;28;20899;-83
2022/02/17 06:17:23;;;;;;;4.87;4.20;;;12.10;57.10;;;;;;5097927;28;20432;-84
2022/02/17 06:19:49;;;;;;;6.30;4.30;;;12.00;57.40;;;;;;5097569;28;21303;-83
2022/02/17 06:22:15;;;;;;;3.40;3.30;;;12.10;58.00;;;;;;5097280;28;20224;-84
2022/02/17 06:24:41;;;;;;;4.90;4.50;;;12.00;58.50;;;;;;5097995;28;20178;-84
2022/02/17 06:27:06;;;;;;;4.30;3.90;;;12.00;58.80;;;;;;5098366;28;20638;-84
2022/02/17 06:29:32;;;;;;;3.70;3.60;;;11.90;58.40;;;;;;5098012;28;20615;-82
2022/02/17 06:32:03;;;;;;;3.77;3.67;;;11.90;58.30;;;;;;5097865;28;20189;-82
2022/02/17 06:34:29;;;;;;;3.30;3.20;;;11.90;58.40;;;;;;5097543;28;20170;-81
2022/02/17 06:36:54;;;;;;;8.67;3.83;;;11.80;59.10;;;;;;5097834;28;20415;-82
2022/02/17 06:39:20;;;;;;;3.30;3.17;;;11.80;59.10;;;;;;5097733;28;20739;-83
2022/02/17 06:41:46;;;;;;;4.13;3.90;;;11.80;58.50;;;;;;5097362;28;20205;-82
2022/02/17 06:44:12;;;;;;;4.63;4.23;;;11.80;59.10;;;;;;5097529;28;20933;-82
2022/02/17 06:46:37;;;;;;;3.80;3.60;;;11.70;58.40;;;;;;5097526;28;20792;-82
2022/02/17 06:49:03;;;;;;;8.53;4.27;;;11.70;59.00;;;;;;5096780;28;20174;-80
2022/02/17 06:51:29;;;;;;;4.30;4.10;;;11.70;58.60;;;;;;5096613;28;20222;-81
2022/02/17 06:53:55;;;;;;;6.13;4.00;;;11.60;58.00;;;;;;5096393;28;20265;-81
2022/02/17 06:56:21;;;;;;;5.23;3.90;;;11.70;57.70;;;;;;5095771;28;20429;-80
2022/02/17 06:58:47;;;;;;;5.50;4.97;;;11.60;57.60;;;;;;5091851;28;20435;-80
2022/02/17 07:01:13;;;;;;;5.17;4.77;;;11.70;56.70;;;;;;5076037;28;20461;-80
2022/02/17 07:03:39;;;;;;;5.30;4.90;;;11.70;55.80;;;;;;5094303;28;20531;-80
2022/02/17 07:06:05;;;;;;;4.27;4.07;;;11.60;56.60;;;;;;5076142;28;20419;-80
2022/02/17 07:08:31;;;;;;;5.33;4.90;;;11.60;56.30;;;;;;5075854;28;20445;-80
2022/02/17 07:10:56;;;;;;;4.73;4.50;;;11.60;55.20;;;;;;5081645;28;20451;-80
2022/02/17 07:13:24;;;;;;;5.43;5.03;;;11.60;54.80;;;;;;5096129;28;20420;-80
2022/02/17 07:15:50;;;;;;;6.50;3.90;;;11.60;54.00;;;;;;5095857;28;20174;-81
2022/02/17 07:18:17;;;;;;;5.97;5.20;;;11.60;53.50;;;;;;5096167;28;20435;-81
2022/02/17 07:20:44;;;;;;;6.90;5.30;;;11.60;54.20;;;;;;5095958;28;20459;-81
2022/02/17 07:23:15;;;;;;;4.30;4.10;;;11.50;55.00;;;;;;5096061;28;20408;-80
2022/02/17 07:25:41;;;;;;;7.07;3.90;;;11.50;56.30;;;;;;5096232;28;20420;-81
2022/02/17 07:28:07;;;;;;;3.80;3.70;;;11.50;56.60;;;;;;5095803;28;20783;-81
2022/02/17 07:30:35;;;;;;;4.87;4.53;;;11.50;56.30;;;;;;5096007;28;20428;-81
2022/02/17 07:33:00;;;;;;;5.03;4.63;;;11.50;57.30;;;;;;5095706;28;20181;-81
2022/02/17 07:35:26;;;;;;;6.70;4.53;;;11.50;56.70;;;;;;5095941;28;20786;-81
2022/02/17 07:37:52;;;;;;;5.17;4.67;;;11.40;57.40;;;;;;5095622;28;20170;-80
2022/02/17 07:40:17;;;;;;;3.87;3.57;;;11.30;58.40;;;;;;5095730;28;20181;-81
2022/02/17 07:42:45;;;;;;;3.93;3.67;;;11.30;57.80;;;;;;5095451;28;20303;-80
2022/02/17 07:45:12;;;;;;;5.60;5.10;;;11.30;57.30;;;;;;5095666;28;20182;-80
2022/02/17 07:47:42;;;;;;;5.17;4.47;;;11.30;55.30;;;;;;5095522;28;20799;-80
2022/02/17 07:50:08;;;;;;;4.70;4.30;;;11.30;54.40;;;;;;5095912;28;20758;-80
2022/02/17 07:52:34;;;;;;;4.93;4.63;;;11.50;51.10;;;;;;5095162;28;20427;-80
2022/02/17 07:55:00;;;;;;;4.97;4.63;;;11.50;50.40;;;;;;5095711;28;20459;-80
2022/02/17 07:57:25;;;;;;;8.83;5.50;;;11.60;48.90;;;;;;5095533;28;20426;-80
2022/02/17 07:59:51;;;;;;;5.57;5.07;;;11.60;49.60;;;;;;5095419;28;20268;-80
2022/02/17 08:02:16;;;;;;;5.50;5.27;;;11.60;49.30;;;;;;5095191;28;20223;-81
2022/02/17 08:04:43;;;;;;;5.03;4.17;;;11.70;48.80;;;;;;5095230;28;20178;-80
2022/02/17 08:07:09;;;;;;;8.53;5.50;;;11.60;49.40;;;;;;5094291;28;20174;-80
2022/02/17 08:09:36;;;;;;;5.63;4.80;;;11.70;49.00;;;;;;5094946;28;20552;-80
2022/02/17 08:12:02;;;;;;;4.27;4.07;;;11.80;48.50;;;;;;5095416;28;20782;-80
2022/02/17 08:14:28;;;;;;;4.43;4.13;;;11.80;48.10;;;;;;5094842;28;20419;-78
2022/02/17 08:16:53;;;;;;;4.60;4.30;;;11.90;47.50;;;;;;5095019;28;20443;-78
2022/02/17 08:19:20;;;;;;;5.57;5.17;;;12.00;47.10;;;;;;5094764;28;20177;-80
2022/02/17 08:21:45;;;;;;;8.30;4.80;;;12.00;45.70;;;;;;5095043;28;20796;-79
2022/02/17 08:24:13;;;;;;;4.77;4.47;;;12.00;46.40;;;;;;5095117;28;20419;-80
2022/02/17 08:26:40;;;;;;;4.20;3.90;;;12.00;47.00;;;;;;5094857;28;20185;-80
2022/02/17 08:29:06;;;;;;;5.97;5.37;;;12.00;46.40;;;;;;5095226;28;20457;-80
2022/02/17 08:31:33;;;;;;;5.70;5.20;;;12.00;46.80;;;;;;5088859;28;20451;-80
2022/02/17 08:34:05;;;;;;;6.50;4.63;;;12.10;44.50;;;;;;5080210;28;20417;-80
2022/02/17 08:36:34;;;;;;;10.60;5.67;;;12.10;43.50;;;;;;5075013;28;20974;-80
2022/02/17 08:39:01;;;;;;;5.13;4.70;;;12.10;42.60;;;;;;5075159;28;20454;-80
2022/02/17 08:41:26;;;;;;;5.60;5.20;;;12.10;41.10;;;;;;5074551;28;20462;-80
2022/02/17 08:43:52;;;;;;;4.53;4.10;;;12.00;40.70;;;;;;5074527;28;20409;-80
2022/02/17 08:46:20;;;;;;;5.97;4.27;;;12.00;41.40;;;;;;5074412;28;20235;-81
2022/02/17 08:48:47;;;;;;;8.60;6.13;;;12.00;41.10;;;;;;5074370;28;20477;-82
2022/02/17 08:51:13;;;;;;;9.73;4.60;;;12.00;41.30;;;;;;5074322;28;20793;-82
2022/02/17 08:53:39;;;;;;;6.53;4.57;;;12.00;41.60;;;;;;5074181;28;20424;-82
2022/02/17 08:56:05;;;;;;;5.67;4.73;;;12.00;41.70;;;;;;5074449;28;20496;-83
2022/02/17 08:58:31;;;;;;;7.77;5.23;;;12.00;41.00;;;;;;5074246;28;20178;-82
2022/02/17 09:00:58;;;;;;;4.40;4.10;;;12.00;40.80;;;;;;5074564;28;20578;-83
2022/02/17 09:03:24;;;;;;;7.37;5.00;;;12.00;40.30;;;;;;5074603;28;20413;-81
2022/02/17 09:05:50;;;;;;;4.60;4.30;;;12.10;40.90;;;;;;5074810;28;20421;-81
2022/02/17 09:08:15;;;;;;;10.10;5.43;;;12.10;40.20;;;;;;5074819;28;20313;-80
2022/02/17 09:10:41;;;;;;;5.30;4.80;;;12.20;40.20;;;;;;5074889;28;20545;-80
2022/02/17 09:13:06;;;;;;;5.50;5.10;;;12.20;40.50;;;;;;5074633;28;20189;-81
2022/02/17 09:15:32;;;;;;;4.63;4.23;;;12.30;39.40;;;;;;5074146;28;20527;-81
2022/02/17 09:17:58;;;;;;;7.63;4.50;;;12.30;37.30;;;;;;5081454;28;20204;-81
2022/02/17 09:20:24;;;;;;;7.83;5.47;;;12.30;36.90;;;;;;5087448;28;20178;-81
2022/02/17 09:22:50;;;;;;;10.47;5.73;;;12.30;35.60;;;;;;5079411;28;20534;-80
2022/02/17 09:25:16;;;;;;;4.57;3.70;;;12.30;35.50;;;;;;5073847;28;20469;-80
2022/02/17 09:27:42;;;;;;;11.50;4.07;;;12.30;36.00;;;;;;5085714;28;20179;-81
2022/02/17 09:30:08;;;;;;;4.90;3.83;;;12.30;35.20;;;;;;5081862;28;20476;-81
2022/02/17 09:32:34;;;;;;;5.20;3.80;;;12.40;34.10;;;;;;5093300;28;20181;-81
2022/02/17 09:35:01;;;;;;;6.93;5.17;;;12.50;33.70;;;;;;5092785;28;20416;-81
2022/02/17 09:37:26;;;;;;;10.87;4.80;;;12.50;33.70;;;;;;5093905;28;20515;-81
2022/02/17 09:39:53;;;;;;;10.50;4.20;;;12.60;32.80;;;;;;5093812;28;20499;-81
2022/02/17 09:42:19;;;;;;;5.17;4.73;;;12.60;33.80;;;;;;5093552;28;20466;-81
2022/02/17 09:44:45;;;;;;;5.00;3.83;;;12.60;31.40;;;;;;5093789;28;20415;-80
2022/02/17 09:47:11;;;;;;;6.77;3.80;;;12.70;31.30;;;;;;5093936;28;20485;-80
2022/02/17 09:49:40;;;;;;;9.33;4.07;;;12.70;31.70;;;;;;5093675;28;20412;-81
2022/02/17 09:52:07;;;;;;;7.73;4.70;;;12.70;31.20;;;;;;5094019;28;20791;-80
2022/02/17 09:54:34;;;;;;;9.87;3.97;;;12.60;32.30;;;;;;5093771;28;20420;-80
2022/02/17 09:57:00;;;;;;;6.23;4.20;;;12.50;32.00;;;;;;5093732;28;20419;-81
2022/02/17 09:59:26;;;;;;;7.73;4.20;;;12.40;33.60;;;;;;5093869;28;20579;-80
2022/02/17 10:01:53;;;;;;;6.50;4.30;;;12.40;33.70;;;;;;5093413;28;20460;-82
2022/02/17 10:04:21;;;;;;;5.27;4.70;;;12.40;33.50;;;;;;5093302;28;20451;-79
2022/02/17 10:06:56;;;;;;;5.60;3.60;;;12.30;33.50;;;;;;5093023;28;20412;-79
2022/02/17 10:09:33;;;;;;;5.70;4.73;;;12.40;34.10;;;;;;5093669;28;20411;-81
2022/02/17 10:11:59;;;;;;;7.20;4.93;;;12.30;34.10;;;;;;5093412;28;20437;-79
2022/02/17 10:14:25;;;;;;;4.20;3.63;;;12.30;34.50;;;;;;5093496;28;20962;-79
2022/02/17 10:16:51;;;;;;;8.53;3.80;;;12.40;33.30;;;;;;5092361;28;20428;-80
2022/02/17 10:19:16;;;;;;;7.80;4.30;;;12.40;32.90;;;;;;5093764;28;20474;-80
2022/02/17 10:21:42;;;;;;;10.70;5.23;;;12.40;33.60;;;;;;5093440;28;20677;-80
2022/02/17 10:24:08;;;;;;;10.67;4.80;;;12.30;37.10;;;;;;5093579;28;20174;-80
2022/02/17 10:26:33;;;;;;;7.43;4.70;;;12.10;37.40;;;;;;5093561;28;20268;-80
2022/02/17 10:29:03;;;;;;;7.80;4.53;;;12.10;38.70;;;;;;5093508;28;20598;-80
2022/02/17 10:31:35;;;;;;;14.00;7.13;;;12.00;39.90;;;;;;5095823;28;20548;-80
2022/02/17 10:34:03;;;;;;;5.10;4.60;;;11.80;42.20;;;;;;5096840;28;20407;-80
2022/02/17 10:36:40;;;;;;;4.77;4.47;;;11.60;43.10;;;;;;5096994;28;20911;-80
2022/02/17 10:39:22;;;;;;;6.17;4.43;;;11.50;42.60;;;;;;5097235;28;20921;-80
2022/02/17 10:41:50;;;;;;;4.67;4.17;;;11.70;42.70;;;;;;5096649;28;20565;-80
2022/02/17 10:44:17;;;;;;;6.80;4.57;;;11.60;42.30;;;;;;5096812;28;20423;-80
2022/02/17 10:46:43;;;;;;;10.80;5.70;;;11.60;41.70;;;;;;5096923;28;20415;-80
2022/02/17 10:49:17;;;;;;;11.40;5.83;;;11.60;42.30;;;;;;5096717;28;20420;-80
2022/02/17 10:51:43;;;;;;;6.70;5.57;;;11.60;42.40;;;;;;5096904;28;20174;-80
2022/02/17 10:54:10;;;;;;;9.27;7.00;;;11.60;40.40;;;;;;5114985;28;20404;-79
2022/02/17 10:56:36;;;;;;;8.57;5.10;;;11.70;40.80;;;;;;5096605;28;20987;-80
2022/02/17 11:01:53;;;;;;;8.57;4.30;;;11.80;39.70;;;;;;5115058;28;20557;-80
2022/02/17 11:04:19;;;;;;;9.10;4.30;;;11.80;40.00;;;;;;5096299;28;20403;-80
2022/02/17 11:06:45;;;;;;;8.93;5.20;;;11.80;39.40;;;;;;5096585;28;20408;-80
2022/02/17 11:09:12;;;;;;;5.43;4.17;;;11.90;38.20;;;;;;5096476;28;20496;-80
2022/02/17 11:11:38;;;;;;;6.13;4.80;;;11.90;37.30;;;;;;5096496;28;20182;-80
2022/02/17 11:14:03;;;;;;;6.27;4.63;;;12.00;36.90;;;;;;5096345;28;20517;-80
2022/02/17 11:16:29;;;;;;;3.93;3.67;;;12.00;35.50;;;;;;5096146;28;20445;-81
2022/02/17 11:18:57;;;;;;;8.47;6.40;;;12.10;35.10;;;;;;5096355;28;20185;-80
2022/02/17 11:21:23;;;;;;;9.37;5.30;;;12.10;35.00;;;;;;5096259;28;20456;-80
2022/02/17 11:23:56;;;;;;;6.60;4.37;;;12.20;33.40;;;;;;5096219;28;20888;-80
2022/02/17 11:26:29;;;;;;;5.10;4.60;;;12.30;33.00;;;;;;5096099;28;20444;-80
2022/02/17 11:28:56;;;;;;;5.90;3.67;;;12.40;32.60;;;;;;5096283;28;20766;-82
2022/02/17 11:31:22;;;;;;;5.57;3.90;;;12.30;31.10;;;;;;5096241;28;20915;-82
2022/02/17 11:33:56;;;;;;;4.33;4.00;;;12.40;31.60;;;;;;5096063;28;20419;-80
2022/02/17 11:36:24;;;;;;;9.50;4.43;;;12.30;30.50;;;;;;5096008;28;20261;-80
2022/02/17 11:38:52;;;;;;;5.93;4.27;;;12.30;30.00;;;;;;5096058;28;20511;-80
2022/02/17 11:41:19;;;;;;;5.97;3.87;;;12.20;29.80;;;;;;5095724;28;20458;-80
2022/02/17 11:43:52;;;;;;;6.10;4.17;;;12.20;30.10;;;;;;5096179;28;20408;-80
2022/02/17 11:46:54;;;;;;;7.40;4.47;;;12.10;30.10;;;;;;5095809;28;20788;-80
2022/02/17 11:49:31;;;;;;;5.27;3.80;;;12.10;30.00;;;;;;4995174;28;20526;-81
2022/02/17 11:52:18;;;;;;;5.33;4.20;;;12.20;29.90;;;;;;5084011;28;20412;-81
2022/02/17 11:55:17;;;;;;;5.77;3.97;;;12.20;29.40;;;;;;5096671;28;20415;-81
2022/02/17 11:57:43;;;;;;;5.23;3.40;;;12.20;30.60;;;;;;5096018;28;20464;-81
2022/02/17 12:00:25;;;;;;;9.93;5.47;;;12.20;29.90;;;;;;5114233;28;20403;-81
2022/02/17 12:02:55;;;;;;;8.13;4.37;;;12.30;30.30;;;;;;5095219;28;20982;-81
2022/02/17 12:05:21;;;;;;;8.90;4.60;;;12.30;29.50;;;;;;5095740;28;20412;-81
2022/02/17 12:07:49;;;;;;;8.50;5.10;;;12.30;29.60;;;;;;5095744;28;20485;-81
2022/02/17 12:10:33;;;;;;;7.73;4.60;;;12.30;30.10;;;;;;5095567;28;20170;-83
2022/02/17 12:13:09;;;;;;;9.33;4.63;;;12.30;30.00;;;;;;5095199;28;20461;-81
2022/02/17 12:15:35;;;;;;;9.13;5.90;;;12.30;30.20;;;;;;5094875;28;20423;-81
2022/02/17 12:18:01;;;;;;;9.47;5.27;;;12.30;30.70;;;;;;5094962;28;20798;-81
2022/02/17 12:20:30;;;;;;;11.53;6.70;;;12.30;30.30;;;;;;5095389;28;20665;-80
2022/02/17 12:23:02;;;;;;;9.93;5.00;;;12.30;31.20;;;;;;5093462;28;20411;-80
2022/02/17 12:25:34;;;;;;;11.37;5.50;;;12.30;31.50;;;;;;5095205;28;20186;-79
2022/02/17 12:28:17;;;;;;;10.00;5.40;;;12.30;31.80;;;;;;5095440;28;20411;-79
2022/02/17 12:30:49;;;;;;;4.07;3.77;;;12.20;31.90;;;;;;5095132;28;20464;-81
2022/02/17 12:33:27;;;;;;;6.60;3.67;;;12.20;31.30;;;;;;5095306;28;20439;-80
2022/02/17 12:36:00;;;;;;;6.73;4.13;;;12.30;31.10;;;;;;5095050;28;20917;-80
2022/02/17 12:38:31;;;;;;;6.50;4.00;;;12.40;30.20;;;;;;5095161;28;20434;-80
2022/02/17 12:40:57;;;;;;;6.93;4.20;;;12.40;30.20;;;;;;5094993;28;20486;-80
2022/02/17 12:43:35;;;;;;;6.03;4.70;;;12.50;29.30;;;;;;5094946;28;20483;-80
2022/02/17 12:46:07;;;;;;;4.13;3.83;;;12.60;28.70;;;;;;5094958;28;20571;-81
2022/02/17 12:48:35;;;;;;;4.40;3.60;;;12.60;28.70;;;;;;5094816;28;20411;-80